createdAt,value
2018-02-18T00:01:45.163Z,13.57
2018-02-18T00:04:12.691Z,15.52
2018-02-18T00:06:40.168Z,14.30
2018-02-18T00:09:08.510Z,14.18
2018-02-18T00:11:36.840Z,14.68
2018-02-18T00:14:04.336Z,13.38
2018-02-18T00:16:31.803Z,13.15
2018-02-18T00:18:59.413Z,13.35
2018-02-18T00:21:27.875Z,12.48
2018-02-18T00:23:56.224Z,12.45
2018-02-18T00:26:24.114Z,13.23
2018-02-18T00:28:52.360Z,13.00
2018-02-18T00:31:19.899Z,11.73
2018-02-18T00:33:47.581Z,12.60
2018-02-18T00:36:15.072Z,12.55
2018-02-18T00:38:42.564Z,12.48
2018-02-18T00:41:12.250Z,11.75
2018-02-18T00:43:39.729Z,11.80
2018-02-18T00:46:18.638Z,13.10
2018-02-18T00:48:46.243Z,11.43
2018-02-18T00:51:13.727Z,12.13
2018-02-18T00:53:42.382Z,13.02
2018-02-18T00:56:10.935Z,12.50
2018-02-18T00:58:38.435Z,12.55
2018-02-18T01:01:06.667Z,13.05
2018-02-18T01:03:34.166Z,11.10
2018-02-18T01:06:02.694Z,12.05
2018-02-18T01:08:30.920Z,12.63
2018-02-18T01:11:05.031Z,12.05
2018-02-18T01:13:33.278Z,12.98
2018-02-18T01:16:01.090Z,12.00
2018-02-18T01:18:28.964Z,12.80
2018-02-18T01:20:56.451Z,12.18
2018-02-18T01:23:23.915Z,11.50
2018-02-18T01:25:51.426Z,10.65
2018-02-18T01:28:19.053Z,12.23
2018-02-18T01:30:47.080Z,9.52
2018-02-18T01:33:14.607Z,12.13
2018-02-18T01:35:42.397Z,11.73
2018-02-18T01:38:09.893Z,12.18
2018-02-18T01:40:37.621Z,11.50
2018-02-18T01:43:05.946Z,12.23
2018-02-18T01:45:34.203Z,12.73
2018-02-18T01:48:01.730Z,12.57
2018-02-18T01:50:37.266Z,11.40
2018-02-18T01:53:04.744Z,17.08
2018-02-18T01:55:32.234Z,14.02
2018-02-18T01:58:00.475Z,15.15
2018-02-18T02:00:28.541Z,14.20
2018-02-18T02:02:56.006Z,13.62
2018-02-18T02:05:23.500Z,13.62
2018-02-18T02:07:51.767Z,15.27
2018-02-18T02:10:19.245Z,13.93
2018-02-18T02:12:47.491Z,13.80
2018-02-18T02:15:15.235Z,14.23
2018-02-18T02:17:42.703Z,14.75
2018-02-18T02:20:10.177Z,13.85
2018-02-18T02:22:38.435Z,13.57
2018-02-18T02:25:06.679Z,14.60
2018-02-18T02:27:34.661Z,14.48
2018-02-18T02:30:02.244Z,12.90
2018-02-18T02:32:29.741Z,12.55
2018-02-18T02:34:58.500Z,11.05
2018-02-18T02:37:26.825Z,12.45
2018-02-18T02:39:55.516Z,13.60
2018-02-18T02:42:23.755Z,12.32
2018-02-18T02:44:51.252Z,12.18
2018-02-18T02:47:18.721Z,12.95
2018-02-18T02:49:46.224Z,13.10
2018-02-18T02:52:13.767Z,13.70
2018-02-18T02:54:41.221Z,12.13
2018-02-18T02:57:10.243Z,13.80
2018-02-18T02:59:38.162Z,14.55
2018-02-18T03:02:05.631Z,13.95
2018-02-18T03:04:34.444Z,13.35
2018-02-18T03:07:02.584Z,13.15
2018-02-18T03:09:30.203Z,12.00
2018-02-18T03:11:57.681Z,12.35
2018-02-18T03:14:25.491Z,13.60
2018-02-18T03:16:53.003Z,14.57
2018-02-18T03:19:20.499Z,11.32
2018-02-18T03:21:47.992Z,13.27
2018-02-18T03:24:15.471Z,12.85
2018-02-18T03:26:42.943Z,12.02
2018-02-18T03:29:10.618Z,11.05
2018-02-18T03:31:38.944Z,12.35
2018-02-18T03:34:06.412Z,12.35
2018-02-18T03:36:33.895Z,13.02
2018-02-18T03:39:02.131Z,12.93
2018-02-18T03:41:29.611Z,12.15
2018-02-18T03:43:58.202Z,11.63
2018-02-18T03:46:25.709Z,12.10
2018-02-18T03:48:53.576Z,13.18
2018-02-18T03:51:21.444Z,12.63
2018-02-18T03:53:48.923Z,12.23
2018-02-18T03:56:16.400Z,12.75
2018-02-18T03:58:43.910Z,11.73
2018-02-18T04:01:12.025Z,13.62
2018-02-18T04:03:39.539Z,12.52
2018-02-18T04:06:07.016Z,12.93
2018-02-18T04:08:35.221Z,14.02
2018-02-18T04:11:03.500Z,14.18
2018-02-18T04:13:31.060Z,13.77
2018-02-18T04:15:58.532Z,11.85
2018-02-18T04:18:26.767Z,12.50
2018-02-18T04:20:54.580Z,12.93
2018-02-18T04:23:22.092Z,14.55
2018-02-18T04:25:49.574Z,12.98
2018-02-18T04:28:17.833Z,13.48
2018-02-18T04:30:45.862Z,12.77
2018-02-18T04:33:13.315Z,13.75
2018-02-18T04:35:40.843Z,13.40
2018-02-18T04:38:08.314Z,14.48
2018-02-18T04:40:36.537Z,11.93
2018-02-18T04:43:04.000Z,14.25
2018-02-18T04:45:31.471Z,13.43
2018-02-18T04:47:59.721Z,12.82
2018-02-18T04:50:27.203Z,13.75
2018-02-18T04:52:55.920Z,13.20
2018-02-18T04:55:23.412Z,13.77
2018-02-18T04:57:50.894Z,13.75
2018-02-18T05:00:18.367Z,14.45
2018-02-18T05:02:46.909Z,15.93
2018-02-18T05:05:14.387Z,16.42
2018-02-18T05:07:41.856Z,15.93
2018-02-18T05:10:10.192Z,16.48
2018-02-18T05:12:37.675Z,16.75
2018-02-18T05:15:05.303Z,15.85
2018-02-18T05:17:32.763Z,15.07
2018-02-18T05:20:03.608Z,14.65
2018-02-18T05:22:31.238Z,15.10
2018-02-18T05:24:58.724Z,17.73
2018-02-18T05:27:26.291Z,20.55
2018-02-18T05:29:53.789Z,16.00
2018-02-18T05:32:21.863Z,19.77
2018-02-18T05:34:49.648Z,16.25
2018-02-18T05:37:26.909Z,18.08
2018-02-18T05:39:54.555Z,18.42
2018-02-18T05:42:22.811Z,18.30
2018-02-18T05:44:50.299Z,21.73
2018-02-18T05:47:18.360Z,22.05
2018-02-18T05:49:46.600Z,21.90
2018-02-18T05:52:14.751Z,20.65
2018-02-18T05:54:42.261Z,18.67
2018-02-18T05:57:10.491Z,18.67
2018-02-18T05:59:37.984Z,21.62
2018-02-18T06:02:06.334Z,24.33
2018-02-18T06:04:33.800Z,20.08
2018-02-18T06:07:01.274Z,20.20
2018-02-18T06:09:29.543Z,22.75
2018-02-18T06:11:57.018Z,20.17
2018-02-18T06:14:25.281Z,17.98
2018-02-18T06:16:53.902Z,19.70
2018-02-18T06:19:21.381Z,18.17
2018-02-18T06:21:49.393Z,17.15
2018-02-18T06:24:17.651Z,16.90
2018-02-18T06:26:45.904Z,17.05
2018-02-18T06:29:13.383Z,20.27
2018-02-18T06:31:40.874Z,17.85
2018-02-18T06:34:09.001Z,24.40
2018-02-18T06:36:36.722Z,18.85
2018-02-18T06:39:04.199Z,16.48
2018-02-18T06:41:32.288Z,17.30
2018-02-18T06:43:59.758Z,19.42
2018-02-18T06:46:27.324Z,19.17
2018-02-18T06:48:55.555Z,17.95
2018-02-18T06:51:23.042Z,17.67
2018-02-18T06:53:50.604Z,18.52
2018-02-18T06:56:18.088Z,17.25
2018-02-18T06:58:46.821Z,17.55
2018-02-18T07:01:14.307Z,20.60
2018-02-18T07:03:41.784Z,24.30
2018-02-18T07:06:10.307Z,20.35
2018-02-18T07:08:37.818Z,19.98
2018-02-18T07:11:06.861Z,18.83
2018-02-18T07:13:35.627Z,18.98
2018-02-18T07:16:03.388Z,19.58
2018-02-18T07:18:31.152Z,18.00
2018-02-18T07:20:58.719Z,19.80
2018-02-18T07:23:26.215Z,20.05
2018-02-18T07:25:54.254Z,18.05
2018-02-18T07:28:22.339Z,22.92
2018-02-18T07:30:49.914Z,20.12
2018-02-18T07:33:17.392Z,22.65
2018-02-18T07:35:45.623Z,34.10
2018-02-18T07:38:13.107Z,21.85
2018-02-18T07:40:40.582Z,26.08
2018-02-18T07:43:08.831Z,23.20
2018-02-18T07:45:36.308Z,19.55
2018-02-18T07:48:04.844Z,20.33
2018-02-18T07:50:33.201Z,19.55
2018-02-18T07:53:00.689Z,21.77
2018-02-18T07:55:28.211Z,23.55
2018-02-18T07:57:55.718Z,20.77
2018-02-18T08:00:23.373Z,20.10
2018-02-18T08:02:50.851Z,19.75
2018-02-18T08:05:19.111Z,20.52
2018-02-18T08:07:48.099Z,21.67
2018-02-18T08:10:15.572Z,19.55
2018-02-18T08:12:43.821Z,23.10
2018-02-18T08:15:11.292Z,20.85
2018-02-18T08:17:38.780Z,20.95
2018-02-18T08:20:06.591Z,20.95
2018-02-18T08:22:34.283Z,22.05
2018-02-18T08:25:02.523Z,21.80
2018-02-18T08:27:30.024Z,36.90
2018-02-18T08:29:58.784Z,22.40
2018-02-18T08:32:26.531Z,22.08
2018-02-18T08:34:54.587Z,32.35
2018-02-18T08:37:22.093Z,23.65
2018-02-18T08:39:50.333Z,19.85
2018-02-18T08:42:17.846Z,20.92
2018-02-18T08:44:46.061Z,22.52
2018-02-18T08:47:13.550Z,21.42
2018-02-18T08:49:42.379Z,21.30
2018-02-18T08:52:09.843Z,22.52
2018-02-18T08:54:37.328Z,20.83
2018-02-18T08:57:04.814Z,26.10
2018-02-18T08:59:33.046Z,22.50
2018-02-18T09:02:00.524Z,23.08
2018-02-18T09:04:27.995Z,19.98
2018-02-18T09:06:56.261Z,21.73
2018-02-18T09:09:23.835Z,22.92
2018-02-18T09:11:52.069Z,23.80
2018-02-18T09:14:19.734Z,21.25
2018-02-18T09:16:47.508Z,22.87
2018-02-18T09:19:15.005Z,20.00
2018-02-18T09:21:42.487Z,22.92
2018-02-18T09:24:09.971Z,21.95
2018-02-18T09:26:37.437Z,20.48
2018-02-18T09:29:04.912Z,19.05
2018-02-18T09:31:33.418Z,21.45
2018-02-18T09:34:01.308Z,19.30
2018-02-18T09:36:28.797Z,22.55
2018-02-18T09:38:56.274Z,21.50
2018-02-18T09:41:25.444Z,21.58
2018-02-18T09:43:52.958Z,22.27
2018-02-18T09:46:20.744Z,20.58
2018-02-18T09:48:48.593Z,22.55
2018-02-18T09:51:16.666Z,20.45
2018-02-18T09:53:44.155Z,20.17
2018-02-18T09:56:11.631Z,20.48
2018-02-18T09:58:39.880Z,21.95
2018-02-18T10:01:07.370Z,19.45
2018-02-18T10:03:35.650Z,19.90
2018-02-18T10:06:03.906Z,19.62
2018-02-18T10:08:31.504Z,18.48
2018-02-18T10:10:59.382Z,19.23
2018-02-18T10:13:27.246Z,19.92
2018-02-18T10:15:54.736Z,21.20
2018-02-18T10:18:22.219Z,20.15
2018-02-18T10:20:50.948Z,21.17
2018-02-18T10:23:18.445Z,20.23
2018-02-18T10:25:45.918Z,16.98
2018-02-18T10:28:14.224Z,21.23
2018-02-18T10:30:41.700Z,19.57
2018-02-18T10:33:09.186Z,18.10
2018-02-18T10:35:36.660Z,21.60
2018-02-18T10:38:05.284Z,19.77
2018-02-18T10:40:33.150Z,17.73
2018-02-18T10:43:01.249Z,18.00
2018-02-18T10:45:28.848Z,18.10
2018-02-18T10:47:57.681Z,17.93
2018-02-18T10:50:25.609Z,17.20
2018-02-18T10:52:54.218Z,20.33
2018-02-18T10:55:21.692Z,19.00
2018-02-18T10:57:49.200Z,17.57
2018-02-18T11:00:17.439Z,17.73
2018-02-18T11:02:44.971Z,17.33
2018-02-18T11:05:14.163Z,19.13
2018-02-18T11:07:42.027Z,16.50
2018-02-18T11:10:09.514Z,12.90
2018-02-18T11:12:37.260Z,14.80
2018-02-18T11:15:05.559Z,15.07
2018-02-18T11:17:33.148Z,12.70
2018-02-18T11:20:01.772Z,18.40
2018-02-18T11:22:29.260Z,14.27
2018-02-18T11:24:57.418Z,14.57
2018-02-18T11:27:25.627Z,13.60
2018-02-18T11:29:54.495Z,13.03
2018-02-18T11:32:21.955Z,17.03
2018-02-18T11:34:49.467Z,13.23
2018-02-18T11:37:16.940Z,14.10
2018-02-18T11:39:44.410Z,13.47
2018-02-18T11:42:11.966Z,13.40
2018-02-18T11:44:41.544Z,14.80
2018-02-18T11:47:09.080Z,14.50
2018-02-18T11:49:37.309Z,13.87
2018-02-18T11:52:04.941Z,14.60
2018-02-18T11:54:32.442Z,17.37
2018-02-18T11:57:01.435Z,14.77
2018-02-18T11:59:30.907Z,15.40
2018-02-18T12:01:58.387Z,15.93
2018-02-18T12:04:26.221Z,15.37
2018-02-18T12:06:53.727Z,14.40
2018-02-18T12:09:21.980Z,14.67
2018-02-18T12:11:49.808Z,11.80
2018-02-18T12:14:17.293Z,14.40
2018-02-18T12:16:45.514Z,16.50
2018-02-18T12:19:13.781Z,15.50
2018-02-18T12:21:42.373Z,11.63
2018-02-18T12:24:09.898Z,10.63
2018-02-18T12:26:37.477Z,12.17
2018-02-18T12:29:06.734Z,10.10
2018-02-18T12:31:34.262Z,9.43
2018-02-18T12:34:01.791Z,10.53
2018-02-18T12:36:30.071Z,11.17
2018-02-18T12:38:59.219Z,9.73
2018-02-18T12:41:26.702Z,11.10
2018-02-18T12:43:54.210Z,10.97
2018-02-18T12:46:21.677Z,12.13
2018-02-18T12:48:50.355Z,9.57
2018-02-18T12:51:17.905Z,10.67
2018-02-18T12:53:45.640Z,9.60
2018-02-18T12:56:14.070Z,10.13
2018-02-18T12:58:41.965Z,9.20
2018-02-18T13:01:11.245Z,9.00
2018-02-18T13:03:38.727Z,9.50
2018-02-18T13:06:06.981Z,9.80
2018-02-18T13:08:34.861Z,8.93
2018-02-18T13:11:02.366Z,20.77
2018-02-18T13:13:29.921Z,13.07
2018-02-18T13:15:57.680Z,12.10
2018-02-18T13:18:26.181Z,9.73
2018-02-18T13:20:54.352Z,9.70
2018-02-18T13:23:22.459Z,10.07
2018-02-18T13:25:49.998Z,9.90
2018-02-18T13:28:18.096Z,9.00
2018-02-18T13:30:46.587Z,8.63
2018-02-18T13:33:14.859Z,8.53
2018-02-18T13:35:43.344Z,9.97
2018-02-18T13:38:11.857Z,9.40
2018-02-18T13:40:39.342Z,7.83
2018-02-18T13:43:07.270Z,9.03
2018-02-18T13:45:34.773Z,8.83
2018-02-18T13:48:02.260Z,8.70
2018-02-18T13:50:30.577Z,8.87
2018-02-18T13:52:58.054Z,7.97
2018-02-18T13:55:26.790Z,9.50
2018-02-18T13:57:54.369Z,20.07
2018-02-18T14:00:24.195Z,10.87
2018-02-18T14:02:53.890Z,9.97
2018-02-18T14:05:22.078Z,9.70
2018-02-18T14:07:51.096Z,9.60
2018-02-18T14:10:18.581Z,10.53
2018-02-18T14:12:46.900Z,18.40
2018-02-18T14:15:14.402Z,11.20
2018-02-18T14:17:42.100Z,11.37
2018-02-18T14:20:09.791Z,13.87
2018-02-18T14:22:38.876Z,12.10
2018-02-18T14:25:06.343Z,13.37
2018-02-18T14:27:34.284Z,14.00
2018-02-18T14:30:02.155Z,16.07
2018-02-18T14:32:29.760Z,16.50
2018-02-18T14:34:58.332Z,14.77
2018-02-18T14:37:25.819Z,13.67
2018-02-18T14:39:56.942Z,14.20
2018-02-18T14:42:36.361Z,14.80
